Terminal Aerodrome Forecast
Issued by NWS

Home | Current Version | Previous Version | Text Only | Print | Product List | Glossary On
Versions: 1 2 3 4 5 6 7 8 9 10 11 12 13 14 15 16 17 18 19 20 21 22 23 24 25 26 27 28 29 30 31 32 33 34 35 36 37 38 39 40 41 42 43 44
000
FTUS44 KMOB 300534
TAFBFM
TAF
KBFM 300534Z 3006/3106 26006KT P6SM -SHRA BKN060 OVC080
     FM300800 VRB03KT P6SM SCT060 BKN150 OVC250
     FM301400 13008KT P6SM VCTS BKN050CB
      TEMPO 3014/3018 4SM TSRA BKN030CB=

USA.gov is the U.S. government's official web portal to all federal, state and local government web resources and services.